createdAt,value
2022-07-30T00:03:01.650Z,16.07
2022-07-30T00:06:03.538Z,16.05
2022-07-30T00:09:05.301Z,16.04
2022-07-30T00:12:08.480Z,16.03
2022-07-30T00:15:10.331Z,15.99
2022-07-30T00:18:12.548Z,15.99
2022-07-30T00:21:20.244Z,16.02
2022-07-30T00:24:36.499Z,16.00
2022-07-30T00:27:38.243Z,16.04
2022-07-30T00:30:40.780Z,16.02
2022-07-30T00:33:42.908Z,16.04
2022-07-30T00:36:44.634Z,16.05
2022-07-30T00:39:46.461Z,16.02
2022-07-30T00:42:48.577Z,15.99
2022-07-30T00:45:50.891Z,16.01
2022-07-30T00:48:52.656Z,16.06
2022-07-30T00:51:54.935Z,16.06
2022-07-30T00:54:56.720Z,16.01
2022-07-30T00:57:58.461Z,16.01
2022-07-30T01:01:00.935Z,16.00
2022-07-30T01:04:03.660Z,15.95
2022-07-30T01:07:05.881Z,15.94
2022-07-30T01:10:11.172Z,15.94
2022-07-30T01:13:13.089Z,15.94
2022-07-30T01:16:15.061Z,15.94
2022-07-30T01:19:43.145Z,15.95
2022-07-30T01:22:47.764Z,15.95
2022-07-30T01:26:02.099Z,15.91
2022-07-30T01:29:04.909Z,15.91
2022-07-30T01:32:08.970Z,15.89
2022-07-30T01:35:12.850Z,15.93
2022-07-30T01:38:17.223Z,15.88
2022-07-30T01:41:19.955Z,15.89
2022-07-30T01:44:25.859Z,15.88
2022-07-30T01:47:28.786Z,15.87
2022-07-30T01:50:32.594Z,15.84
2022-07-30T01:53:39.003Z,15.84
2022-07-30T01:56:42.546Z,15.84
2022-07-30T01:59:50.291Z,15.84
2022-07-30T02:02:54.427Z,15.86
2022-07-30T02:06:01.238Z,15.86
2022-07-30T02:09:07.035Z,15.88
2022-07-30T02:12:29.697Z,15.87
2022-07-30T02:15:38.899Z,15.88
2022-07-30T02:18:43.585Z,15.89
2022-07-30T02:21:56.554Z,15.93
2022-07-30T02:25:01.657Z,15.89
2022-07-30T02:28:09.650Z,15.91
2022-07-30T02:31:17.388Z,15.88
2022-07-30T02:34:22.874Z,15.90
2022-07-30T02:37:41.489Z,15.90
2022-07-30T02:40:46.604Z,15.88
2022-07-30T02:43:50.082Z,15.89
2022-07-30T02:46:55.154Z,15.98
2022-07-30T02:50:17.994Z,15.96
2022-07-30T02:53:22.497Z,15.91
2022-07-30T02:56:26.299Z,15.89
2022-07-30T02:59:30.602Z,15.88
2022-07-30T03:02:34.135Z,15.85
2022-07-30T03:05:40.967Z,15.81
2022-07-30T03:08:44.869Z,15.78
2022-07-30T03:11:48.700Z,15.78
2022-07-30T03:14:51.839Z,15.79
2022-07-30T03:17:55.681Z,15.78
2022-07-30T03:21:00.706Z,15.77
2022-07-30T03:24:05.090Z,15.72
2022-07-30T03:27:09.237Z,15.74
2022-07-30T03:30:12.218Z,15.76
2022-07-30T03:33:15.811Z,15.72
2022-07-30T03:36:18.455Z,15.74
2022-07-30T03:39:22.542Z,15.72
2022-07-30T03:42:25.629Z,15.72
2022-07-30T03:45:28.028Z,15.75
2022-07-30T03:48:38.596Z,15.78
2022-07-30T03:51:41.991Z,15.79
2022-07-30T03:54:44.431Z,15.73
2022-07-30T03:58:11.801Z,15.72
2022-07-30T04:01:13.702Z,15.72
2022-07-30T04:04:16.621Z,15.71
2022-07-30T04:07:18.687Z,15.74
2022-07-30T04:10:20.436Z,15.70
2022-07-30T04:13:34.281Z,15.68
2022-07-30T04:16:53.011Z,15.74
2022-07-30T04:20:02.816Z,15.74
2022-07-30T04:23:05.296Z,15.70
2022-07-30T04:26:08.706Z,15.66
2022-07-30T04:29:13.497Z,15.68
2022-07-30T04:32:19.413Z,15.72
2022-07-30T04:35:51.216Z,15.65
2022-07-30T04:39:11.144Z,15.63
2022-07-30T04:42:13.471Z,15.61
2022-07-30T04:45:20.151Z,15.57
2022-07-30T04:48:42.240Z,15.60
2022-07-30T04:51:51.802Z,15.63
2022-07-30T04:54:57.875Z,15.65
2022-07-30T04:58:02.019Z,15.66
2022-07-30T05:01:09.096Z,15.64
2022-07-30T05:04:12.611Z,15.61
2022-07-30T05:07:15.018Z,15.57
2022-07-30T05:10:18.112Z,15.60
2022-07-30T05:13:19.882Z,15.59
2022-07-30T05:16:24.908Z,15.58
2022-07-30T05:19:29.416Z,15.59
2022-07-30T05:22:31.591Z,15.61
2022-07-30T05:25:33.339Z,15.66
2022-07-30T05:28:53.961Z,15.65
2022-07-30T05:32:03.190Z,15.70
2022-07-30T05:35:09.462Z,15.71
2022-07-30T05:38:11.549Z,15.71
2022-07-30T05:41:33.286Z,15.73
2022-07-30T05:44:38.111Z,15.74
2022-07-30T05:47:39.718Z,15.73
2022-07-30T05:50:41.471Z,15.75
2022-07-30T05:53:43.236Z,15.75
2022-07-30T05:56:44.872Z,15.73
2022-07-30T05:59:52.217Z,15.74
2022-07-30T06:02:58.515Z,15.75
2022-07-30T06:06:00.487Z,15.77
2022-07-30T06:09:02.147Z,15.80
2022-07-30T06:12:05.154Z,15.83
2022-07-30T06:15:08.020Z,15.85
2022-07-30T06:18:12.610Z,15.86
2022-07-30T06:21:25.303Z,15.91
2022-07-30T06:24:48.155Z,15.95
2022-07-30T06:27:53.684Z,15.97
2022-07-30T06:30:55.383Z,16.00
2022-07-30T06:34:00.314Z,16.04
2022-07-30T06:37:07.296Z,16.04
2022-07-30T06:40:09.950Z,16.06
2022-07-30T06:43:34.489Z,16.13
2022-07-30T06:46:54.868Z,16.15
2022-07-30T06:50:02.045Z,16.21
2022-07-30T06:53:05.615Z,16.25
2022-07-30T06:56:27.241Z,16.26
2022-07-30T06:59:33.421Z,16.29
2022-07-30T07:03:01.494Z,16.37
2022-07-30T07:06:12.836Z,16.47
2022-07-30T07:09:14.533Z,16.52
2022-07-30T07:12:22.742Z,16.55
2022-07-30T07:15:36.998Z,16.58
2022-07-30T07:18:42.719Z,16.64
2022-07-30T07:21:46.199Z,16.72
2022-07-30T07:24:48.057Z,16.87
2022-07-30T07:28:11.038Z,16.95
2022-07-30T07:32:06.358Z,17.08
2022-07-30T07:34:37.244Z,17.20
2022-07-30T07:37:40.497Z,17.28
2022-07-30T07:40:43.598Z,17.41
2022-07-30T07:43:45.280Z,17.55
2022-07-30T07:46:53.351Z,17.71
2022-07-30T07:49:56.885Z,17.91
2022-07-30T07:52:58.844Z,18.11
2022-07-30T07:56:00.601Z,18.28
2022-07-30T07:59:02.350Z,18.57
2022-07-30T08:02:05.932Z,18.77
2022-07-30T08:05:24.294Z,18.73
2022-07-30T08:08:37.050Z,18.67
2022-07-30T08:12:08.154Z,18.62
2022-07-30T08:18:52.821Z,18.67
2022-07-30T08:22:17.887Z,18.69
2022-07-30T08:25:24.145Z,18.60
2022-07-30T08:28:35.975Z,18.59
2022-07-30T08:31:39.149Z,18.60
2022-07-30T08:34:41.090Z,18.66
2022-07-30T08:37:43.850Z,18.70
2022-07-30T08:40:46.140Z,18.73
2022-07-30T08:43:51.272Z,18.71
2022-07-30T08:46:59.363Z,18.78
2022-07-30T08:50:20.499Z,18.89
2022-07-30T08:53:51.444Z,19.01
2022-07-30T08:56:54.877Z,19.06
2022-07-30T09:00:01.882Z,19.21
2022-07-30T09:03:03.767Z,19.42
2022-07-30T09:06:05.874Z,19.65
2022-07-30T09:09:09.098Z,19.85
2022-07-30T09:12:30.186Z,20.05
2022-07-30T09:15:33.608Z,20.22
2022-07-30T09:18:38.505Z,20.46
2022-07-30T09:21:42.780Z,20.58
2022-07-30T09:24:57.281Z,20.62
2022-07-30T09:27:59.066Z,20.61
2022-07-30T09:31:20.931Z,20.81
2022-07-30T09:34:41.030Z,20.93
2022-07-30T09:37:42.893Z,20.91
2022-07-30T09:41:39.822Z,21.01
2022-07-30T09:44:47.143Z,21.05
2022-07-30T09:47:49.418Z,21.05
2022-07-30T09:50:54.892Z,20.91
2022-07-30T09:54:00.186Z,20.81
2022-07-30T09:57:22.866Z,20.82
2022-07-30T10:00:32.760Z,20.96
2022-07-30T10:03:48.418Z,21.16
2022-07-30T10:07:24.870Z,21.32
2022-07-30T10:10:31.604Z,21.38
2022-07-30T10:13:35.441Z,21.53
2022-07-30T10:16:37.805Z,21.80
2022-07-30T10:19:42.011Z,21.91
2022-07-30T10:23:15.662Z,22.16
2022-07-30T10:26:36.825Z,22.31
2022-07-30T10:30:05.806Z,22.00
2022-07-30T10:33:08.684Z,21.74
2022-07-30T10:36:31.581Z,21.56
2022-07-30T10:39:47.150Z,21.56
2022-07-30T10:43:31.587Z,21.61
2022-07-30T10:47:06.996Z,21.86
2022-07-30T10:50:15.822Z,21.78
2022-07-30T10:53:40.120Z,21.66
2022-07-30T10:56:41.760Z,21.53
2022-07-30T10:59:49.405Z,21.43
2022-07-30T11:03:15.103Z,21.41
2022-07-30T11:06:24.406Z,21.46
2022-07-30T11:09:37.414Z,21.72
2022-07-30T11:12:44.001Z,21.86
2022-07-30T11:15:59.767Z,22.06
2022-07-30T11:19:55.190Z,22.21
2022-07-30T11:22:41.042Z,22.17
2022-07-30T11:25:50.612Z,22.35
2022-07-30T11:28:53.861Z,22.53
2022-07-30T11:31:58.772Z,22.67
2022-07-30T11:35:18.362Z,22.55
2022-07-30T11:38:22.478Z,22.41
2022-07-30T11:41:24.727Z,22.47
2022-07-30T11:44:28.481Z,22.44
2022-07-30T11:47:30.668Z,22.28
2022-07-30T11:50:34.773Z,22.06
2022-07-30T11:53:37.673Z,21.85
2022-07-30T11:57:08.798Z,21.65
2022-07-30T12:00:10.792Z,21.52
2022-07-30T12:03:21.183Z,21.47
2022-07-30T12:06:23.870Z,21.42
2022-07-30T12:09:29.662Z,21.40
2022-07-30T12:12:31.307Z,21.39
2022-07-30T12:15:35.066Z,21.40
2022-07-30T12:18:37.437Z,21.39
2022-07-30T12:21:39.109Z,21.44
2022-07-30T12:24:40.753Z,21.54
2022-07-30T12:27:52.004Z,21.62
2022-07-30T12:30:54.831Z,21.68
2022-07-30T12:33:58.366Z,21.75
2022-07-30T12:37:09.989Z,21.85
2022-07-30T12:40:15.382Z,21.97
2022-07-30T12:43:17.536Z,22.20
2022-07-30T12:46:20.522Z,22.51
2022-07-30T12:49:37.624Z,22.56
2022-07-30T12:52:52.152Z,22.53
2022-07-30T12:55:54.844Z,22.58
2022-07-30T12:58:58.585Z,22.53
2022-07-30T13:02:01.282Z,22.51
2022-07-30T13:05:10.905Z,22.47
2022-07-30T13:08:13.741Z,22.51
2022-07-30T13:11:16.701Z,22.70
2022-07-30T13:14:18.384Z,22.87
2022-07-30T13:17:20.131Z,22.94
2022-07-30T13:20:22.161Z,22.90
2022-07-30T13:23:24.760Z,22.74
2022-07-30T13:26:29.626Z,22.61
2022-07-30T13:29:31.267Z,22.49
2022-07-30T13:32:33.047Z,22.32
2022-07-30T13:35:34.813Z,22.23
2022-07-30T13:38:36.755Z,22.15
2022-07-30T13:41:38.373Z,22.06
2022-07-30T13:44:40.103Z,21.95
2022-07-30T13:47:41.731Z,21.86
2022-07-30T13:50:43.756Z,21.75
2022-07-30T13:53:45.567Z,21.64
2022-07-30T13:56:50.215Z,21.61
2022-07-30T13:59:52.646Z,21.60
2022-07-30T14:02:54.626Z,21.56
2022-07-30T14:05:56.377Z,21.55
2022-07-30T14:09:12.307Z,21.46
2022-07-30T14:12:14.055Z,21.39
2022-07-30T14:15:17.893Z,21.37
2022-07-30T14:18:19.754Z,21.35
2022-07-30T14:21:21.443Z,21.36
2022-07-30T14:24:23.633Z,21.37
2022-07-30T14:27:25.218Z,21.39
2022-07-30T14:30:26.890Z,21.36
2022-07-30T14:33:28.491Z,21.38
2022-07-30T14:36:30.422Z,21.40
2022-07-30T14:39:32.089Z,21.41
2022-07-30T14:42:33.759Z,21.41
2022-07-30T14:45:36.605Z,21.42
2022-07-30T14:48:38.286Z,21.44
2022-07-30T14:51:39.901Z,21.44
2022-07-30T14:54:41.544Z,21.43
2022-07-30T14:57:43.552Z,21.46
2022-07-30T15:00:48.870Z,21.54
2022-07-30T15:03:50.768Z,21.61
2022-07-30T15:06:52.463Z,21.65
2022-07-30T15:09:54.094Z,21.68
2022-07-30T15:12:55.711Z,21.72
2022-07-30T15:15:57.385Z,21.75
2022-07-30T15:18:59.279Z,21.79
2022-07-30T15:22:02.497Z,21.81
2022-07-30T15:25:05.995Z,21.85
2022-07-30T15:28:08.957Z,21.88
2022-07-30T15:31:10.619Z,21.98
2022-07-30T15:34:12.660Z,22.06
2022-07-30T15:37:15.553Z,22.14
2022-07-30T15:40:17.266Z,22.34
2022-07-30T15:43:18.940Z,22.51
2022-07-30T15:46:20.604Z,22.62
2022-07-30T15:49:22.472Z,22.63
2022-07-30T15:52:24.248Z,22.63
2022-07-30T15:55:25.968Z,22.70
2022-07-30T15:58:28.005Z,22.80
2022-07-30T16:01:29.842Z,22.89
2022-07-30T16:04:33.037Z,22.90
2022-07-30T16:07:34.854Z,22.92
2022-07-30T16:10:36.491Z,22.97
2022-07-30T16:13:38.458Z,22.96
2022-07-30T16:16:40.134Z,22.93
2022-07-30T16:19:45.093Z,22.88
2022-07-30T16:22:47.440Z,22.82
2022-07-30T16:25:49.116Z,22.75
2022-07-30T16:28:51.051Z,22.69
2022-07-30T16:31:52.715Z,22.64
2022-07-30T16:34:54.407Z,22.61
2022-07-30T16:37:57.934Z,22.59
2022-07-30T16:40:59.599Z,22.56
2022-07-30T16:44:01.219Z,22.51
2022-07-30T16:47:02.982Z,22.42
2022-07-30T16:50:05.107Z,22.32
2022-07-30T16:53:13.525Z,22.29
2022-07-30T16:56:17.235Z,22.27
2022-07-30T16:59:20.069Z,22.23
2022-07-30T17:02:23.462Z,22.17
2022-07-30T17:05:25.117Z,22.11
2022-07-30T17:08:26.874Z,22.04
2022-07-30T17:11:46.351Z,21.97
2022-07-30T17:14:49.802Z,21.91
2022-07-30T17:17:51.762Z,21.79
2022-07-30T17:20:53.674Z,21.68
2022-07-30T17:23:55.321Z,21.56
2022-07-30T17:26:57.371Z,21.46
2022-07-30T17:30:01.080Z,21.37
2022-07-30T17:33:04.878Z,21.30
2022-07-30T17:36:08.466Z,21.24
2022-07-30T17:39:10.106Z,21.15
2022-07-30T17:42:31.715Z,21.17
2022-07-30T17:45:34.865Z,21.12
2022-07-30T17:48:36.549Z,21.03
2022-07-30T17:51:38.284Z,20.98
2022-07-30T17:54:39.969Z,20.92
2022-07-30T17:57:41.542Z,20.83
2022-07-30T18:00:43.514Z,20.74
2022-07-30T18:03:45.334Z,20.66
2022-07-30T18:06:47.034Z,20.50
2022-07-30T18:09:48.652Z,20.26
2022-07-30T18:12:50.381Z,20.08
2022-07-30T18:15:53.888Z,19.89
2022-07-30T18:18:55.468Z,19.68
2022-07-30T18:21:57.108Z,19.54
2022-07-30T18:25:00.684Z,19.23
2022-07-30T18:28:03.857Z,18.96
2022-07-30T18:31:06.134Z,18.75
2022-07-30T18:34:07.962Z,18.65
2022-07-30T18:37:09.642Z,18.59
2022-07-30T18:40:13.496Z,18.54
2022-07-30T18:43:15.156Z,18.50
2022-07-30T18:46:16.925Z,18.42
2022-07-30T18:49:35.971Z,18.31
2022-07-30T18:52:39.161Z,18.27
2022-07-30T18:55:41.246Z,18.38
2022-07-30T18:58:42.889Z,18.29
2022-07-30T19:01:44.532Z,18.23
2022-07-30T19:04:46.207Z,18.20
2022-07-30T19:07:57.413Z,18.21
2022-07-30T19:11:01.093Z,18.20
2022-07-30T19:14:02.906Z,18.23
2022-07-30T19:17:06.748Z,18.25
2022-07-30T19:20:15.685Z,18.22
2022-07-30T19:23:18.604Z,18.18
2022-07-30T19:26:20.356Z,18.14
2022-07-30T19:29:22.152Z,18.18
2022-07-30T19:32:24.813Z,18.17
2022-07-30T19:35:26.490Z,18.13
2022-07-30T19:38:28.415Z,18.06
2022-07-30T19:41:30.247Z,18.01
2022-07-30T19:44:34.343Z,18.07
2022-07-30T19:47:39.701Z,17.97
2022-07-30T19:50:46.256Z,17.95
2022-07-30T19:53:48.007Z,17.98
2022-07-30T19:56:49.687Z,17.97
2022-07-30T19:59:59.963Z,17.95
2022-07-30T20:03:14.472Z,17.96
2022-07-30T20:06:18.415Z,18.01
2022-07-30T20:09:20.307Z,17.95
2022-07-30T20:12:24.359Z,17.97
2022-07-30T20:15:26.727Z,17.91
2022-07-30T20:18:32.018Z,17.88
2022-07-30T20:21:55.939Z,17.86
2022-07-30T20:24:56.516Z,17.87
2022-07-30T20:27:58.557Z,17.90
2022-07-30T20:31:00.634Z,17.80
2022-07-30T20:34:02.852Z,17.78
2022-07-30T20:37:17.784Z,17.76
2022-07-30T20:40:26.712Z,17.72
2022-07-30T20:43:28.973Z,17.72
2022-07-30T20:46:31.954Z,17.69
2022-07-30T20:49:35.787Z,17.69
2022-07-30T20:52:41.015Z,17.73
2022-07-30T20:55:48.514Z,17.67
2022-07-30T20:58:50.945Z,17.63
2022-07-30T21:01:53.812Z,17.60
2022-07-30T21:04:59.839Z,17.56
2022-07-30T21:08:01.606Z,17.57
2022-07-30T21:11:03.959Z,17.53
2022-07-30T21:14:06.950Z,17.52
2022-07-30T21:17:10.403Z,17.45
2022-07-30T21:20:12.358Z,17.46
2022-07-30T21:23:22.275Z,17.43
2022-07-30T21:26:24.108Z,17.40
2022-07-30T21:29:27.592Z,17.36
2022-07-30T21:32:29.303Z,17.32
2022-07-30T21:35:31.747Z,17.29
2022-07-30T21:38:34.586Z,17.22
2022-07-30T21:41:39.919Z,17.21
2022-07-30T21:44:42.434Z,17.16
2022-07-30T21:47:48.015Z,17.10
2022-07-30T21:50:49.784Z,17.08
2022-07-30T21:53:51.419Z,17.00
2022-07-30T21:56:53.534Z,16.95
2022-07-30T21:59:59.536Z,16.94
2022-07-30T22:03:01.607Z,16.85
2022-07-30T22:06:17.618Z,16.83
2022-07-30T22:09:33.277Z,16.79
2022-07-30T22:12:35.744Z,16.78
2022-07-30T22:15:37.638Z,16.72
2022-07-30T22:18:40.297Z,16.64
2022-07-30T22:21:46.909Z,16.60
2022-07-30T22:24:49.266Z,16.50
2022-07-30T22:27:56.617Z,16.44
2022-07-30T22:30:58.782Z,16.39
2022-07-30T22:34:00.407Z,16.34
2022-07-30T22:37:02.247Z,16.27
2022-07-30T22:40:06.604Z,16.23
2022-07-30T22:43:13.230Z,16.20
2022-07-30T22:46:30.783Z,16.19
2022-07-30T22:49:45.998Z,16.21
2022-07-30T22:52:58.503Z,16.19
2022-07-30T22:56:14.251Z,16.19
2022-07-30T22:59:17.720Z,16.16
2022-07-30T23:02:42.534Z,16.17
2022-07-30T23:05:56.631Z,16.16
2022-07-30T23:08:59.695Z,16.14
2022-07-30T23:12:01.408Z,16.12
2022-07-30T23:15:04.666Z,16.13
2022-07-30T23:18:06.362Z,16.12
2022-07-30T23:21:08.007Z,16.13
2022-07-30T23:24:12.299Z,16.13
2022-07-30T23:27:19.318Z,16.12
2022-07-30T23:30:20.983Z,16.09
2022-07-30T23:33:22.576Z,16.06
2022-07-30T23:36:24.261Z,16.07
2022-07-30T23:39:25.862Z,16.05
2022-07-30T23:42:27.437Z,16.05
2022-07-30T23:45:29.812Z,16.05
2022-07-30T23:48:31.692Z,16.04
2022-07-30T23:51:33.715Z,16.05
2022-07-30T23:54:35.490Z,16.06
2022-07-30T23:57:39.338Z,16.07
